Time;durP1;ratioP1;P1;durP2;ratioP2;P2;SDS_P1;SDS_P2;PMS_P1;PMS_P2;Temp;Humidity;BMP_temperature;BMP_pressure;BME280_temperature;BME280_humidity;BME280_pressure;Samples;Min_cycle;Max_cycle;Signal;HPM_P1;HPM_P2
2021/09/23 00:01:39;;;;;;;2.90;2.70;;;7.90;99.90;;;;;;472527;250;28596;-70
2021/09/23 00:05:40;;;;;;;3.40;3.10;;;7.90;99.90;;;;;;472499;250;28518;-70
2021/09/23 00:07:41;;;;;;;2.80;2.60;;;7.90;99.90;;;;;;472517;250;27869;-70
2021/09/23 00:09:42;;;;;;;3.50;2.93;;;7.90;99.90;;;;;;472526;250;28118;-70
2021/09/23 00:11:44;;;;;;;4.20;2.93;;;8.00;99.90;;;;;;472490;250;27782;-70
2021/09/23 00:13:45;;;;;;;2.63;2.47;;;8.00;99.90;;;;;;472509;250;27589;-70
2021/09/23 00:15:46;;;;;;;3.10;2.90;;;7.90;99.90;;;;;;472488;250;28970;-70
2021/09/23 00:17:48;;;;;;;3.00;2.80;;;7.90;99.90;;;;;;472518;250;27492;-70
2021/09/23 00:19:49;;;;;;;3.07;2.80;;;8.00;99.90;;;;;;472480;250;28029;-70
2021/09/23 00:21:50;;;;;;;3.10;2.80;;;8.00;99.90;;;;;;472513;250;29229;-70
2021/09/23 00:23:51;;;;;;;2.67;2.47;;;8.00;99.90;;;;;;472518;250;27995;-70
2021/09/23 00:25:52;;;;;;;2.70;2.50;;;7.90;99.90;;;;;;472506;250;28334;-70
2021/09/23 00:27:54;;;;;;;3.43;2.33;;;7.90;99.90;;;;;;472500;250;27974;-70
2021/09/23 00:29:55;;;;;;;2.77;2.57;;;7.90;99.90;;;;;;472469;250;28666;-70
2021/09/23 00:31:56;;;;;;;2.70;2.60;;;7.90;99.90;;;;;;472507;251;28675;-70
2021/09/23 00:33:57;;;;;;;2.97;2.77;;;7.90;99.90;;;;;;472533;250;28442;-70
2021/09/23 00:35:59;;;;;;;3.47;2.80;;;7.80;99.90;;;;;;472500;250;28567;-70
2021/09/23 00:38:00;;;;;;;2.90;2.70;;;7.80;99.90;;;;;;472493;250;28301;-70
2021/09/23 00:40:01;;;;;;;2.47;2.27;;;7.90;99.90;;;;;;472473;250;28117;-70
2021/09/23 00:42:04;;;;;;;2.60;2.50;;;7.80;99.90;;;;;;472556;250;28072;-70
2021/09/23 00:44:04;;;;;;;2.80;2.60;;;7.80;99.90;;;;;;472546;250;27713;-70
2021/09/23 00:46:05;;;;;;;2.63;2.47;;;7.80;99.90;;;;;;472520;251;28122;-70
2021/09/23 00:48:06;;;;;;;2.60;2.40;;;7.80;99.90;;;;;;472534;250;27915;-70
2021/09/23 00:50:07;;;;;;;2.60;2.40;;;7.70;99.90;;;;;;472492;250;27641;-71
2021/09/23 00:52:09;;;;;;;2.57;2.37;;;7.70;99.90;;;;;;472494;250;28030;-70
2021/09/23 00:54:10;;;;;;;2.70;2.50;;;7.70;99.90;;;;;;472561;250;28029;-70
2021/09/23 00:56:11;;;;;;;2.93;2.73;;;7.70;99.90;;;;;;472498;250;27646;-71
2021/09/23 00:58:12;;;;;;;2.33;2.23;;;7.70;99.90;;;;;;472509;250;28645;-70
2021/09/23 01:00:13;;;;;;;3.13;2.93;;;7.70;99.90;;;;;;472461;250;28130;-70
2021/09/23 01:02:15;;;;;;;2.93;2.77;;;7.70;99.90;;;;;;472563;250;28014;-70
2021/09/23 01:04:16;;;;;;;2.87;2.67;;;7.60;99.90;;;;;;472559;250;27978;-70
2021/09/23 01:06:17;;;;;;;2.90;2.70;;;7.60;99.90;;;;;;472531;250;28076;-70
2021/09/23 01:08:18;;;;;;;2.87;2.67;;;7.60;99.90;;;;;;472538;250;28357;-70
2021/09/23 01:10:20;;;;;;;3.20;2.97;;;7.60;99.90;;;;;;472492;250;29316;-70
2021/09/23 01:12:21;;;;;;;3.07;2.87;;;7.60;99.90;;;;;;472527;250;28400;-70
2021/09/23 01:14:22;;;;;;;2.90;2.70;;;7.60;99.90;;;;;;472524;250;28179;-70
2021/09/23 01:16:23;;;;;;;3.60;3.20;;;7.60;99.90;;;;;;472506;250;28565;-70
2021/09/23 01:18:25;;;;;;;3.60;3.30;;;7.60;99.90;;;;;;472498;250;28052;-71
2021/09/23 01:20:26;;;;;;;3.17;2.87;;;7.60;99.90;;;;;;472488;250;27592;-70
2021/09/23 01:22:27;;;;;;;2.87;2.67;;;7.50;99.90;;;;;;472530;250;27978;-70
2021/09/23 01:24:29;;;;;;;3.50;3.20;;;7.50;99.90;;;;;;472526;250;27493;-70
2021/09/23 01:26:30;;;;;;;2.90;2.70;;;7.50;99.90;;;;;;472466;250;27612;-70
2021/09/23 01:28:31;;;;;;;2.77;2.63;;;7.50;99.90;;;;;;472500;251;27964;-70
2021/09/23 01:30:32;;;;;;;2.90;2.70;;;7.50;99.90;;;;;;472461;250;28792;-70
2021/09/23 01:32:34;;;;;;;3.70;3.40;;;7.40;99.90;;;;;;472520;250;28180;-70
2021/09/23 01:34:35;;;;;;;3.73;3.33;;;7.40;99.90;;;;;;472515;250;28372;-70
2021/09/23 01:36:36;;;;;;;3.10;2.90;;;7.40;99.90;;;;;;472486;250;28571;-70
2021/09/23 01:38:37;;;;;;;3.28;2.97;;;7.40;99.90;;;;;;472508;250;29398;-70
2021/09/23 01:40:39;;;;;;;2.60;2.40;;;7.40;99.90;;;;;;472440;250;27540;-70
2021/09/23 01:42:40;;;;;;;3.03;2.60;;;7.40;99.90;;;;;;472547;251;28473;-71
2021/09/23 01:44:41;;;;;;;3.20;3.00;;;7.40;99.90;;;;;;472525;250;28050;-70
2021/09/23 01:46:42;;;;;;;3.28;2.92;;;7.40;99.90;;;;;;472480;251;27614;-70
2021/09/23 01:48:44;;;;;;;2.47;2.37;;;7.40;99.90;;;;;;472504;251;27529;-70
2021/09/23 01:50:45;;;;;;;2.50;2.30;;;7.30;99.90;;;;;;472492;250;27534;-70
2021/09/23 01:52:46;;;;;;;2.70;2.50;;;7.30;99.90;;;;;;472526;250;28015;-70
2021/09/23 01:54:48;;;;;;;3.20;3.00;;;7.20;99.90;;;;;;472554;250;27992;-70
2021/09/23 01:56:58;;;;;;;3.00;2.80;;;7.20;99.90;;;;;;472496;250;27657;-71
2021/09/23 01:58:50;;;;;;;2.80;2.60;;;7.30;99.90;;;;;;471440;251;29270;-70
2021/09/23 02:00:51;;;;;;;2.70;2.50;;;7.30;99.90;;;;;;472481;251;28464;-70
2021/09/23 02:02:54;;;;;;;3.27;3.03;;;7.20;99.90;;;;;;472544;250;28516;-70
2021/09/23 02:04:54;;;;;;;3.47;3.17;;;7.20;99.90;;;;;;472534;250;28486;-70
2021/09/23 02:06:55;;;;;;;3.00;2.80;;;7.30;99.90;;;;;;472497;250;28353;-70
2021/09/23 02:08:56;;;;;;;3.13;2.90;;;7.30;99.90;;;;;;472541;250;28530;-70
2021/09/23 02:10:57;;;;;;;3.17;2.97;;;7.30;99.90;;;;;;472512;250;28394;-70
2021/09/23 02:12:59;;;;;;;3.03;2.83;;;7.20;99.90;;;;;;472560;250;27795;-70
2021/09/23 02:15:00;;;;;;;3.80;2.90;;;7.20;99.90;;;;;;472557;250;28129;-70
2021/09/23 02:17:01;;;;;;;2.70;2.50;;;7.20;99.90;;;;;;472524;250;27911;-70
2021/09/23 02:19:02;;;;;;;2.70;2.50;;;7.20;99.90;;;;;;472540;250;27617;-70
2021/09/23 02:21:04;;;;;;;2.90;2.70;;;7.10;99.90;;;;;;472531;248;27992;-70
2021/09/23 02:23:05;;;;;;;3.80;2.90;;;7.00;99.90;;;;;;472575;250;27549;-70
2021/09/23 02:25:06;;;;;;;3.00;2.70;;;7.00;99.90;;;;;;472575;250;27972;-70
2021/09/23 02:27:08;;;;;;;3.78;2.50;;;7.00;99.90;;;;;;472538;250;28291;-70
2021/09/23 02:29:09;;;;;;;2.83;2.53;;;7.00;99.90;;;;;;472470;250;28704;-70
2021/09/23 02:31:10;;;;;;;3.40;3.00;;;7.00;99.90;;;;;;472554;250;27614;-70
2021/09/23 02:33:11;;;;;;;3.45;3.15;;;7.00;99.90;;;;;;472516;250;28877;-70
2021/09/23 02:35:12;;;;;;;3.50;3.20;;;7.00;99.90;;;;;;472586;250;27601;-70
2021/09/23 02:37:14;;;;;;;3.30;3.10;;;7.00;99.90;;;;;;472529;250;27593;-70
2021/09/23 02:39:15;;;;;;;3.00;2.80;;;7.00;99.90;;;;;;472552;250;28862;-71
2021/09/23 02:41:16;;;;;;;3.30;2.90;;;7.00;99.90;;;;;;472560;250;27612;-70
2021/09/23 02:43:17;;;;;;;3.30;2.90;;;7.00;99.90;;;;;;472582;250;28131;-70
2021/09/23 02:45:19;;;;;;;3.35;3.05;;;7.00;99.90;;;;;;472573;250;29046;-70
2021/09/23 02:47:22;;;;;;;3.33;3.03;;;7.00;99.90;;;;;;472565;250;28013;-70
2021/09/23 02:49:21;;;;;;;2.95;2.75;;;7.00;99.90;;;;;;472604;250;29511;-70
2021/09/23 02:51:22;;;;;;;3.40;3.10;;;7.00;99.90;;;;;;472571;250;27494;-70
2021/09/23 02:53:24;;;;;;;3.15;2.90;;;7.00;99.90;;;;;;472557;250;27554;-70
2021/09/23 02:55:25;;;;;;;3.12;2.90;;;7.00;99.90;;;;;;472548;250;27515;-70
2021/09/23 02:57:26;;;;;;;3.00;2.80;;;7.00;99.90;;;;;;472519;250;27517;-70
2021/09/23 02:59:27;;;;;;;2.80;2.60;;;7.00;99.90;;;;;;472571;250;27998;-70
2021/09/23 03:01:29;;;;;;;2.90;2.70;;;7.00;99.90;;;;;;472527;250;27936;-70
2021/09/23 03:03:30;;;;;;;3.00;2.70;;;7.00;99.90;;;;;;472558;250;27516;-70
2021/09/23 03:05:31;;;;;;;3.25;2.95;;;7.00;99.90;;;;;;472539;250;27616;-70
2021/09/23 03:07:32;;;;;;;3.22;2.97;;;7.00;99.90;;;;;;472524;250;27517;-70
2021/09/23 03:09:34;;;;;;;3.72;3.20;;;7.00;99.90;;;;;;472575;250;27537;-70
2021/09/23 03:11:35;;;;;;;2.70;2.50;;;7.00;99.90;;;;;;472536;250;27542;-70
2021/09/23 03:13:36;;;;;;;3.15;2.95;;;7.00;99.90;;;;;;472521;250;28377;-70
2021/09/23 03:15:37;;;;;;;3.00;2.80;;;6.90;99.90;;;;;;472555;250;28729;-70
2021/09/23 03:17:39;;;;;;;3.00;2.80;;;7.00;99.90;;;;;;472509;250;27933;-70
2021/09/23 03:19:40;;;;;;;2.92;2.72;;;6.90;99.90;;;;;;472539;250;27523;-70
2021/09/23 03:21:41;;;;;;;2.92;2.72;;;7.00;99.90;;;;;;472444;250;27503;-70
2021/09/23 03:23:42;;;;;;;2.85;2.65;;;7.00;99.90;;;;;;472507;250;27604;-70
2021/09/23 03:25:44;;;;;;;2.90;2.70;;;7.00;99.90;;;;;;472541;250;27867;-70
2021/09/23 03:27:45;;;;;;;3.37;2.90;;;7.00;99.90;;;;;;472464;250;27919;-70
2021/09/23 03:29:46;;;;;;;3.15;2.95;;;7.00;99.90;;;;;;472472;250;28007;-70
2021/09/23 03:31:48;;;;;;;2.65;2.50;;;7.00;99.90;;;;;;472513;248;27477;-71
2021/09/23 03:33:49;;;;;;;4.75;3.12;;;7.00;99.90;;;;;;472502;251;27594;-71
2021/09/23 03:35:50;;;;;;;3.70;3.40;;;7.00;99.90;;;;;;472554;250;27654;-70
2021/09/23 03:37:51;;;;;;;3.10;2.90;;;6.90;99.90;;;;;;472509;250;27513;-70
2021/09/23 03:39:53;;;;;;;3.08;2.87;;;6.90;99.90;;;;;;472540;250;27542;-71
2021/09/23 03:41:54;;;;;;;3.35;3.10;;;6.90;99.90;;;;;;472511;250;28106;-70
2021/09/23 03:43:55;;;;;;;3.78;3.40;;;6.90;99.90;;;;;;472517;250;28006;-70
2021/09/23 03:45:58;;;;;;;3.10;2.90;;;6.80;99.90;;;;;;472544;250;27622;-70
2021/09/23 03:47:58;;;;;;;3.47;3.20;;;6.70;99.90;;;;;;472512;250;27605;-70
2021/09/23 03:49:59;;;;;;;3.60;3.35;;;6.70;99.90;;;;;;472527;250;27545;-70
2021/09/23 03:52:00;;;;;;;3.37;3.08;;;6.70;99.90;;;;;;472475;250;27581;-70
2021/09/23 03:54:01;;;;;;;3.90;3.10;;;6.70;99.90;;;;;;472500;250;28135;-70
2021/09/23 03:56:03;;;;;;;2.90;2.70;;;6.70;99.90;;;;;;472535;250;28117;-70
2021/09/23 03:58:04;;;;;;;3.20;2.90;;;6.70;99.90;;;;;;472493;251;27628;-70
2021/09/23 04:00:05;;;;;;;3.40;3.10;;;6.70;99.90;;;;;;472520;250;27648;-71
2021/09/23 04:02:06;;;;;;;2.80;2.60;;;6.70;99.90;;;;;;472498;250;27502;-70
2021/09/23 04:04:08;;;;;;;3.22;3.03;;;6.70;99.90;;;;;;472548;250;27567;-70
2021/09/23 04:06:09;;;;;;;3.72;3.42;;;6.60;99.90;;;;;;472534;251;27626;-70
2021/09/23 04:08:10;;;;;;;3.10;2.80;;;6.60;99.90;;;;;;472498;245;28028;-70
2021/09/23 04:10:11;;;;;;;3.30;3.00;;;6.60;99.90;;;;;;472533;250;27576;-70
2021/09/23 04:12:13;;;;;;;3.10;2.90;;;6.60;99.90;;;;;;472409;250;27541;-70
2021/09/23 04:14:14;;;;;;;3.45;3.15;;;6.60;99.90;;;;;;472522;250;27647;-70
2021/09/23 04:16:15;;;;;;;2.97;2.75;;;6.60;99.90;;;;;;472485;251;27580;-70
2021/09/23 04:18:17;;;;;;;3.80;3.50;;;6.50;99.90;;;;;;472416;250;27499;-70
2021/09/23 04:20:18;;;;;;;3.83;2.83;;;6.40;99.90;;;;;;472483;250;28017;-70
2021/09/23 04:22:19;;;;;;;3.55;3.25;;;6.50;99.90;;;;;;472510;250;28078;-70
2021/09/23 04:24:20;;;;;;;3.05;2.80;;;6.40;99.90;;;;;;472535;250;27499;-70
2021/09/23 04:26:22;;;;;;;3.25;3.05;;;6.40;99.90;;;;;;472515;250;27561;-70
2021/09/23 04:28:23;;;;;;;3.10;2.90;;;6.30;99.90;;;;;;472493;250;27490;-71
2021/09/23 04:30:24;;;;;;;3.40;3.20;;;6.40;99.90;;;;;;472488;250;27634;-70
2021/09/23 04:32:25;;;;;;;3.35;3.15;;;6.40;99.90;;;;;;472511;250;27643;-70
2021/09/23 04:34:27;;;;;;;3.40;3.20;;;6.40;99.90;;;;;;472510;250;27950;-70
2021/09/23 04:36:28;;;;;;;3.78;3.12;;;6.40;99.90;;;;;;472493;250;27995;-70
2021/09/23 04:38:29;;;;;;;3.28;3.03;;;6.40;99.90;;;;;;472477;250;27486;-70
2021/09/23 04:40:30;;;;;;;3.00;2.80;;;6.40;99.90;;;;;;472526;250;27503;-70
2021/09/23 04:42:32;;;;;;;3.35;3.15;;;6.40;99.90;;;;;;472501;250;27524;-70
2021/09/23 04:44:34;;;;;;;3.37;3.17;;;6.40;99.90;;;;;;472514;250;28015;-70
2021/09/23 04:46:35;;;;;;;3.80;3.50;;;6.40;99.90;;;;;;472494;250;27607;-70
2021/09/23 04:48:36;;;;;;;4.05;3.30;;;6.40;99.90;;;;;;472474;250;27510;-70
2021/09/23 04:50:38;;;;;;;3.90;3.37;;;6.40;99.90;;;;;;472522;250;27610;-70
2021/09/23 04:52:39;;;;;;;3.15;2.95;;;6.40;99.90;;;;;;472472;250;27503;-70
2021/09/23 04:54:40;;;;;;;3.50;3.20;;;6.40;99.90;;;;;;472480;250;27566;-70
2021/09/23 04:56:41;;;;;;;3.05;2.85;;;6.40;99.90;;;;;;472493;244;27482;-70
2021/09/23 04:58:43;;;;;;;3.92;3.12;;;6.40;99.90;;;;;;472498;250;28065;-70
2021/09/23 05:00:44;;;;;;;3.50;3.30;;;6.40;99.90;;;;;;472511;250;28104;-70
2021/09/23 05:02:45;;;;;;;3.72;3.50;;;6.40;99.90;;;;;;472495;250;27581;-70
2021/09/23 05:04:47;;;;;;;3.10;2.80;;;6.40;99.90;;;;;;472459;250;27557;-70
2021/09/23 05:06:48;;;;;;;3.30;3.10;;;6.40;99.90;;;;;;472467;250;27498;-70
2021/09/23 05:08:49;;;;;;;2.78;2.60;;;6.40;99.90;;;;;;472481;250;27540;-70
2021/09/23 05:10:50;;;;;;;3.15;2.95;;;6.30;99.90;;;;;;472527;250;27529;-70
2021/09/23 05:12:52;;;;;;;3.35;3.15;;;6.30;99.90;;;;;;472481;251;27935;-70
2021/09/23 05:14:53;;;;;;;3.50;3.20;;;6.30;99.90;;;;;;472472;250;28008;-70
2021/09/23 05:16:54;;;;;;;3.30;3.00;;;6.30;99.90;;;;;;472461;250;27517;-70
2021/09/23 05:18:55;;;;;;;3.15;2.95;;;6.30;99.90;;;;;;472532;250;27499;-70
2021/09/23 05:20:57;;;;;;;3.50;3.20;;;6.30;99.90;;;;;;472505;250;27550;-70
2021/09/23 05:22:58;;;;;;;3.58;3.28;;;6.30;99.90;;;;;;472505;250;27589;-70
2021/09/23 05:24:59;;;;;;;3.47;3.17;;;6.30;99.90;;;;;;472496;251;27541;-70
2021/09/23 05:27:00;;;;;;;3.80;3.50;;;6.30;99.90;;;;;;472518;250;27942;-70
2021/09/23 05:29:02;;;;;;;3.55;3.28;;;6.40;99.90;;;;;;472504;250;27949;-70
2021/09/23 05:31:03;;;;;;;3.03;2.83;;;6.40;99.90;;;;;;472375;250;28098;-70
2021/09/23 05:33:05;;;;;;;3.67;3.37;;;6.50;99.90;;;;;;472467;250;27533;-70
2021/09/23 05:35:05;;;;;;;3.33;2.95;;;6.50;99.90;;;;;;472468;250;27539;-70
2021/09/23 05:37:07;;;;;;;2.95;2.80;;;6.50;99.90;;;;;;472506;250;27552;-69
2021/09/23 05:39:09;;;;;;;3.53;3.15;;;6.50;99.90;;;;;;472498;250;27517;-70
2021/09/23 05:41:09;;;;;;;3.58;3.35;;;6.30;99.90;;;;;;472493;250;27626;-70
2021/09/23 05:43:10;;;;;;;2.90;2.70;;;6.30;99.90;;;;;;472491;250;27990;-70
2021/09/23 05:45:12;;;;;;;3.10;2.90;;;6.20;99.90;;;;;;472494;250;28119;-70
2021/09/23 05:47:13;;;;;;;3.10;2.90;;;6.20;99.90;;;;;;472393;250;27526;-70
2021/09/23 05:49:14;;;;;;;3.10;2.90;;;6.10;99.90;;;;;;472477;251;27636;-70
2021/09/23 05:51:15;;;;;;;3.08;2.87;;;6.00;99.90;;;;;;472459;250;27556;-70
2021/09/23 05:53:17;;;;;;;3.50;3.15;;;6.00;99.90;;;;;;472489;250;27606;-70
2021/09/23 05:55:18;;;;;;;2.95;2.75;;;6.10;99.90;;;;;;472476;250;27536;-70
2021/09/23 05:57:32;;;;;;;3.10;2.90;;;6.20;99.90;;;;;;472535;250;28509;-70
2021/09/23 05:59:27;;;;;;;3.33;3.08;;;6.20;99.90;;;;;;472513;250;28883;-70
2021/09/23 06:01:28;;;;;;;3.10;2.90;;;6.40;99.90;;;;;;472517;251;27985;-71
2021/09/23 06:03:29;;;;;;;3.87;2.85;;;6.50;99.90;;;;;;472463;248;27953;-70
2021/09/23 06:05:30;;;;;;;4.32;3.05;;;6.50;99.90;;;;;;472473;250;27629;-70
2021/09/23 06:07:31;;;;;;;6.22;3.30;;;6.60;99.90;;;;;;472440;250;27580;-70
2021/09/23 06:09:33;;;;;;;3.40;3.10;;;6.60;99.90;;;;;;472499;250;27551;-70
2021/09/23 06:11:37;;;;;;;6.65;3.65;;;6.60;99.90;;;;;;472514;250;27541;-70
2021/09/23 06:13:35;;;;;;;7.47;3.47;;;6.60;99.90;;;;;;472518;248;27631;-70
2021/09/23 06:15:36;;;;;;;3.75;2.65;;;6.60;99.90;;;;;;472524;250;27645;-70
2021/09/23 06:17:39;;;;;;;3.60;3.25;;;6.70;99.90;;;;;;472486;250;27953;-70
2021/09/23 06:19:39;;;;;;;2.97;2.67;;;6.70;99.90;;;;;;472470;251;27521;-70
2021/09/23 06:21:40;;;;;;;4.07;2.67;;;6.80;99.90;;;;;;472509;250;27539;-70
2021/09/23 06:23:41;;;;;;;3.00;2.70;;;6.80;99.90;;;;;;472376;251;27500;-70
2021/09/23 06:25:43;;;;;;;3.00;2.80;;;6.80;99.90;;;;;;472510;250;27542;-70
2021/09/23 06:27:44;;;;;;;3.43;3.00;;;6.80;99.90;;;;;;472423;250;27494;-70
2021/09/23 06:29:45;;;;;;;3.80;3.50;;;6.90;99.90;;;;;;472520;250;28705;-70
2021/09/23 06:31:47;;;;;;;2.95;2.70;;;6.90;99.90;;;;;;472530;250;27995;-70
2021/09/23 06:33:48;;;;;;;2.85;2.65;;;7.00;99.90;;;;;;472468;250;27549;-70
2021/09/23 06:35:49;;;;;;;5.22;3.42;;;7.10;99.90;;;;;;472498;250;27637;-70
2021/09/23 06:37:50;;;;;;;3.28;3.08;;;7.20;99.90;;;;;;472468;250;27582;-70
2021/09/23 06:39:51;;;;;;;5.70;3.75;;;7.30;99.90;;;;;;472525;250;27586;-70
2021/09/23 06:41:53;;;;;;;3.63;3.33;;;7.30;99.90;;;;;;472526;250;27556;-71
2021/09/23 06:43:54;;;;;;;7.82;4.07;;;7.40;99.90;;;;;;472511;250;28166;-70
2021/09/23 06:45:55;;;;;;;7.83;3.37;;;7.50;99.90;;;;;;472412;250;28017;-70
2021/09/23 06:47:56;;;;;;;6.43;3.77;;;7.50;99.90;;;;;;472284;251;30232;-70
2021/09/23 06:49:58;;;;;;;9.40;4.20;;;7.50;99.90;;;;;;472322;250;28512;-70
2021/09/23 06:51:59;;;;;;;11.63;3.60;;;7.60;99.90;;;;;;472330;250;28073;-70
2021/09/23 06:54:00;;;;;;;8.50;4.20;;;7.60;99.90;;;;;;472430;251;28844;-70
2021/09/23 06:56:01;;;;;;;6.77;4.30;;;7.70;99.90;;;;;;472523;250;27984;-70
2021/09/23 06:58:04;;;;;;;9.07;4.63;;;;;;;;;;472525;245;27901;-70
2021/09/23 07:00:06;;;;;;;12.23;4.97;;;8.10;99.90;;;;;;472496;251;26872;-70
2021/09/23 07:02:08;;;;;;;17.00;5.50;;;8.30;99.90;;;;;;472579;245;28020;-70
2021/09/23 07:04:09;;;;;;;10.53;5.33;;;8.50;99.90;;;;;;471398;235;28211;-70
2021/09/23 07:06:10;;;;;;;12.90;6.03;;;8.50;99.90;;;;;;499140;238;27929;-70
2021/09/23 07:08:14;;;;;;;12.90;5.93;;;8.70;99.90;;;;;;499083;238;27888;-70
2021/09/23 07:10:13;;;;;;;11.43;5.67;;;8.90;99.90;;;;;;498999;237;28169;-70
2021/09/23 07:12:14;;;;;;;9.80;5.83;;;9.10;99.90;;;;;;499129;238;28238;-70
2021/09/23 07:14:15;;;;;;;7.87;5.50;;;9.20;99.90;;;;;;499116;238;28211;-70
2021/09/23 07:16:17;;;;;;;6.00;4.77;;;9.30;99.90;;;;;;499113;238;27725;-70
2021/09/23 07:18:18;;;;;;;8.60;4.87;;;9.30;99.90;;;;;;499101;238;27929;-70
2021/09/23 07:20:19;;;;;;;6.33;4.60;;;9.20;99.90;;;;;;499123;238;27944;-70
2021/09/23 07:22:20;;;;;;;5.87;4.53;;;9.10;99.90;;;;;;499118;238;27838;-70
2021/09/23 07:24:22;;;;;;;11.30;4.40;;;9.10;99.90;;;;;;499045;238;27787;-71
2021/09/23 07:26:23;;;;;;;7.17;4.33;;;9.20;99.90;;;;;;499130;238;27681;-70
2021/09/23 07:28:25;;;;;;;4.83;3.97;;;9.20;99.90;;;;;;499069;238;27871;-70
2021/09/23 07:30:25;;;;;;;5.50;3.50;;;9.30;99.90;;;;;;499056;238;27716;-70
2021/09/23 07:32:26;;;;;;;4.30;3.90;;;9.40;99.90;;;;;;499116;238;27869;-70
2021/09/23 07:34:28;;;;;;;3.73;3.43;;;9.50;99.90;;;;;;499114;238;27513;-70
2021/09/23 07:36:30;;;;;;;3.83;3.50;;;9.50;99.90;;;;;;499095;238;27725;-71
2021/09/23 07:38:30;;;;;;;4.40;3.53;;;9.50;99.90;;;;;;499076;238;27756;-71
2021/09/23 07:40:31;;;;;;;3.47;3.17;;;9.40;99.90;;;;;;499094;238;28235;-70
2021/09/23 07:42:33;;;;;;;3.60;3.30;;;9.50;99.90;;;;;;499131;238;28213;-70
2021/09/23 07:44:36;;;;;;;3.37;3.07;;;9.50;99.90;;;;;;499082;238;28771;-70
2021/09/23 07:46:35;;;;;;;3.50;3.20;;;9.50;99.90;;;;;;499007;237;28350;-70
2021/09/23 07:48:36;;;;;;;3.03;2.83;;;9.60;99.90;;;;;;499091;238;28102;-71
2021/09/23 07:50:38;;;;;;;3.07;2.80;;;9.60;99.90;;;;;;499132;238;28385;-71
2021/09/23 07:52:39;;;;;;;3.40;3.10;;;9.70;99.90;;;;;;499120;238;27684;-71
2021/09/23 07:54:40;;;;;;;3.30;2.80;;;9.80;99.90;;;;;;499111;238;27894;-70
2021/09/23 07:56:41;;;;;;;3.20;2.90;;;9.90;99.90;;;;;;499123;238;27723;-70
2021/09/23 07:58:43;;;;;;;2.70;2.50;;;10.00;99.90;;;;;;499070;238;27749;-71
2021/09/23 08:00:44;;;;;;;2.93;2.73;;;10.10;99.90;;;;;;499101;238;27380;-71
2021/09/23 08:02:45;;;;;;;3.10;2.83;;;10.20;99.90;;;;;;499138;238;27705;-70
2021/09/23 08:04:46;;;;;;;2.97;2.60;;;10.40;99.90;;;;;;498620;238;27760;-71
2021/09/23 08:06:48;;;;;;;2.70;2.50;;;10.60;99.90;;;;;;501632;237;27797;-70
2021/09/23 08:08:49;;;;;;;3.07;2.87;;;10.70;99.90;;;;;;493903;238;28015;-71
2021/09/23 08:10:50;;;;;;;2.80;2.47;;;10.70;99.90;;;;;;493950;241;27748;-70
2021/09/23 08:12:51;;;;;;;2.70;2.50;;;10.90;99.90;;;;;;493958;241;28208;-70
2021/09/23 08:14:53;;;;;;;3.27;2.97;;;10.90;99.90;;;;;;493908;241;28967;-71
2021/09/23 08:16:54;;;;;;;2.70;2.50;;;11.00;99.90;;;;;;493889;241;28438;-71
2021/09/23 08:18:55;;;;;;;3.10;2.50;;;11.00;99.90;;;;;;493906;241;28069;-71
2021/09/23 08:20:56;;;;;;;2.53;2.13;;;11.20;99.90;;;;;;493870;241;28038;-71
2021/09/23 08:22:58;;;;;;;4.30;2.53;;;11.30;99.90;;;;;;493950;241;27948;-70
2021/09/23 08:24:59;;;;;;;3.00;2.80;;;11.40;99.90;;;;;;493903;241;27496;-72
2021/09/23 08:27:00;;;;;;;2.17;1.97;;;11.50;99.90;;;;;;493905;241;27974;-71
2021/09/23 08:29:01;;;;;;;2.20;2.10;;;11.60;99.90;;;;;;493880;241;27980;-71
2021/09/23 08:31:03;;;;;;;3.20;2.90;;;11.70;99.90;;;;;;493902;241;27930;-71
2021/09/23 08:33:04;;;;;;;3.13;2.90;;;11.80;99.90;;;;;;493939;241;28015;-71
2021/09/23 08:35:08;;;;;;;3.20;2.90;;;11.90;99.90;;;;;;493916;241;27856;-71
2021/09/23 08:37:09;;;;;;;2.50;2.30;;;12.00;99.90;;;;;;493894;241;28226;-71
2021/09/23 08:39:11;;;;;;;2.63;2.43;;;12.00;99.90;;;;;;493863;241;28552;-71
2021/09/23 08:41:13;;;;;;;2.90;2.50;;;12.00;99.90;;;;;;493899;241;28379;-70
2021/09/23 08:43:13;;;;;;;2.60;2.40;;;11.90;99.90;;;;;;493886;241;27989;-70
2021/09/23 08:45:14;;;;;;;2.80;2.60;;;11.90;99.90;;;;;;493893;241;27917;-71
2021/09/23 08:47:16;;;;;;;3.00;2.80;;;12.00;99.90;;;;;;493870;241;27970;-71
2021/09/23 08:49:17;;;;;;;2.70;2.50;;;12.10;99.90;;;;;;493862;241;28055;-71
2021/09/23 08:51:19;;;;;;;2.30;2.10;;;12.20;99.90;;;;;;493886;241;28128;-71
2021/09/23 08:53:19;;;;;;;2.90;2.60;;;12.30;99.90;;;;;;493944;241;28134;-71
2021/09/23 08:55:21;;;;;;;2.60;2.40;;;12.40;99.90;;;;;;493882;241;28201;-71
2021/09/23 08:57:22;;;;;;;2.70;2.50;;;12.40;99.90;;;;;;493924;241;28049;-71
2021/09/23 08:59:23;;;;;;;2.70;2.50;;;12.50;99.90;;;;;;493873;241;28494;-70
2021/09/23 09:01:29;;;;;;;2.73;2.50;;;12.50;99.90;;;;;;493888;241;28575;-71
2021/09/23 09:03:27;;;;;;;2.27;2.10;;;12.60;99.90;;;;;;493530;240;28661;-71
2021/09/23 09:05:27;;;;;;;3.17;2.90;;;12.50;99.90;;;;;;493823;241;28876;-71
2021/09/23 09:07:31;;;;;;;5.30;2.60;;;12.70;99.90;;;;;;493907;241;28086;-71
2021/09/23 09:09:33;;;;;;;2.80;2.60;;;12.80;99.90;;;;;;493869;241;28062;-71
2021/09/23 09:11:34;;;;;;;2.60;2.40;;;13.10;99.90;;;;;;493923;241;28158;-71
2021/09/23 09:13:35;;;;;;;3.10;2.80;;;13.40;99.90;;;;;;493933;241;28120;-71
2021/09/23 09:15:36;;;;;;;3.17;2.87;;;13.50;99.90;;;;;;493854;241;28221;-71
2021/09/23 09:17:38;;;;;;;2.83;2.63;;;13.50;99.90;;;;;;493889;241;28243;-71
2021/09/23 09:19:39;;;;;;;3.20;3.00;;;13.50;99.90;;;;;;493881;241;28788;-71
2021/09/23 09:21:40;;;;;;;3.10;2.90;;;13.60;99.90;;;;;;493932;241;28721;-71
2021/09/23 09:23:41;;;;;;;3.43;3.13;;;13.70;99.90;;;;;;493933;241;28719;-71
2021/09/23 09:25:43;;;;;;;3.20;2.90;;;13.70;99.90;;;;;;493874;241;28198;-71
2021/09/23 09:27:44;;;;;;;3.00;2.80;;;13.80;99.90;;;;;;493902;241;28489;-71
2021/09/23 09:29:45;;;;;;;3.00;2.80;;;13.70;99.90;;;;;;493839;241;28646;-71
2021/09/23 09:31:47;;;;;;;2.80;2.57;;;13.70;99.90;;;;;;493909;241;28422;-71
2021/09/23 09:33:48;;;;;;;2.87;2.60;;;13.80;99.90;;;;;;493888;240;28391;-71
2021/09/23 09:35:49;;;;;;;2.90;2.70;;;13.70;99.90;;;;;;493877;241;28531;-71
2021/09/23 09:37:50;;;;;;;3.00;2.70;;;13.80;99.90;;;;;;493904;241;28489;-71
2021/09/23 09:39:51;;;;;;;3.10;2.90;;;13.80;99.90;;;;;;493843;241;28954;-71
2021/09/23 09:41:53;;;;;;;3.17;2.93;;;13.90;99.90;;;;;;493926;241;28840;-71
2021/09/23 09:43:54;;;;;;;2.33;2.23;;;14.00;99.90;;;;;;493909;241;29358;-71
2021/09/23 09:45:55;;;;;;;2.73;2.53;;;14.00;99.90;;;;;;493854;241;28996;-70
2021/09/23 09:47:56;;;;;;;2.83;2.63;;;14.00;99.90;;;;;;493898;241;28878;-71
2021/09/23 09:49:58;;;;;;;2.80;2.60;;;14.00;99.90;;;;;;493855;241;28829;-70
2021/09/23 09:52:00;;;;;;;2.87;2.67;;;;;;;;;;493927;241;28222;-71
2021/09/23 09:54:01;;;;;;;2.90;2.70;;;14.30;99.90;;;;;;493932;241;27479;-70
2021/09/23 09:56:02;;;;;;;2.80;2.60;;;14.40;99.90;;;;;;493890;241;28598;-70
2021/09/23 09:58:04;;;;;;;3.20;2.90;;;14.60;99.90;;;;;;493882;241;28748;-70
2021/09/23 10:00:05;;;;;;;3.17;2.97;;;14.80;99.90;;;;;;493875;241;28231;-71
2021/09/23 10:02:06;;;;;;;3.60;3.20;;;14.80;99.90;;;;;;493924;241;28181;-71
2021/09/23 10:04:07;;;;;;;4.40;3.10;;;14.90;99.90;;;;;;493911;241;28406;-70
2021/09/23 10:06:09;;;;;;;3.20;2.90;;;14.80;99.90;;;;;;493876;240;28172;-70
2021/09/23 10:08:10;;;;;;;3.03;2.83;;;14.70;99.90;;;;;;489354;241;28614;-70
2021/09/23 10:10:13;;;;;;;2.90;2.70;;;14.70;99.90;;;;;;488895;242;28253;-71
2021/09/23 10:12:14;;;;;;;3.67;3.37;;;14.70;99.90;;;;;;488892;242;28218;-70
2021/09/23 10:14:15;;;;;;;3.60;2.83;;;14.90;99.90;;;;;;488867;242;28358;-72
2021/09/23 10:16:16;;;;;;;3.50;3.17;;;15.00;99.90;;;;;;488875;242;28903;-70
2021/09/23 10:18:18;;;;;;;5.10;3.30;;;15.20;99.90;;;;;;488908;242;28696;-70
2021/09/23 10:20:19;;;;;;;3.40;3.10;;;15.30;99.90;;;;;;488844;241;29021;-71
2021/09/23 10:22:20;;;;;;;2.87;2.67;;;15.30;99.90;;;;;;488883;242;28500;-72
2021/09/23 10:24:21;;;;;;;3.47;2.90;;;15.10;99.90;;;;;;488820;242;28565;-72
2021/09/23 10:26:24;;;;;;;3.40;3.10;;;15.10;99.90;;;;;;488906;242;28374;-72
2021/09/23 10:28:24;;;;;;;2.90;2.70;;;15.20;99.90;;;;;;488864;242;28435;-72
2021/09/23 10:30:25;;;;;;;3.80;3.17;;;15.30;99.90;;;;;;488883;242;28232;-69
2021/09/23 10:32:27;;;;;;;4.20;3.50;;;15.30;99.90;;;;;;488884;242;28530;-70
2021/09/23 10:34:28;;;;;;;3.03;2.80;;;15.50;99.90;;;;;;488911;241;28504;-69
2021/09/23 10:36:29;;;;;;;3.50;3.20;;;15.60;99.90;;;;;;488883;242;28885;-70
2021/09/23 10:38:30;;;;;;;3.37;2.90;;;15.60;99.90;;;;;;488908;242;28747;-69
2021/09/23 10:40:31;;;;;;;2.93;2.73;;;15.40;99.90;;;;;;488875;242;29065;-69